Time;durP1;ratioP1;P1;durP2;ratioP2;P2;SDS_P1;SDS_P2;PMS_P1;PMS_P2;Temp;Humidity;BMP_temperature;BMP_pressure;BME280_temperature;BME280_humidity;BME280_pressure;Samples;Min_cycle;Max_cycle;Signal;HPM_P1;HPM_P2
2021/01/11 06:02:02;;;;;;;0.10;0.10;;;;;;;;;;5058397;28;20953;-55
2021/01/11 06:04:28;;;;;;;0.20;0.20;;;;;;;;;;5054030;28;20025;-50
2021/01/11 06:06:55;;;;;;;0.10;0.10;;;;;;;;;;5055985;28;20022;-49
2021/01/11 06:09:22;;;;;;;1.00;1.00;;;;;;;;;;5052276;28;20041;-50
2021/01/11 06:11:50;;;;;;;0.10;0.10;;;;;;;;;;5032109;28;20030;-49
2021/01/11 06:14:18;;;;;;;0.60;0.60;;;;;;;;;;5032498;28;20096;-49
2021/01/11 06:16:44;;;;;;;0.20;0.20;;;;;;;;;;5034190;28;20034;-49
2021/01/11 06:19:10;;;;;;;0.47;0.35;;;;;;;;;;5032493;28;20035;-49
2021/01/11 06:21:37;;;;;;;0.20;0.20;;;;;;;;;;5029114;28;20105;-49
2021/01/11 06:24:19;;;;;;;0.20;0.20;;;;;;;;;;5030416;28;20025;-52
2021/01/11 06:26:46;;;;;;;0.20;0.20;;;;;;;;;;5031325;28;20504;-51
2021/01/11 06:29:31;;;;;;;0.20;0.20;;;;;;;;;;5032594;28;20044;-51
2021/01/11 06:31:57;;;;;;;;;;;;;;;;;;5033049;28;20513;-50
2021/01/11 06:34:33;;;;;;;0.10;0.10;;;;;;;;;;5032269;28;20497;-52
2021/01/11 06:36:59;;;;;;;0.20;0.20;;;;;;;;;;5031966;28;20076;-50
2021/01/11 06:39:31;;;;;;;0.20;0.20;;;;;;;;;;5028298;28;20029;-50
2021/01/11 06:41:58;;;;;;;0.20;0.20;;;;;;;;;;5043435;28;20037;-50
2021/01/11 06:44:25;;;;;;;3.13;1.02;;;;;;;;;;5041420;28;20029;-50
2021/01/11 06:46:52;;;;;;;0.20;0.20;;;;;;;;;;5036552;28;20033;-50
2021/01/11 06:49:24;;;;;;;0.60;0.60;;;;;;;;;;5031872;28;20030;-49
2021/01/11 06:51:58;;;;;;;0.10;0.10;;;;;;;;;;5043317;28;20029;-50
2021/01/11 06:54:34;;;;;;;0.25;0.25;;;;;;;;;;5028034;28;20033;-49
2021/01/11 06:57:07;;;;;;;0.13;0.13;;;;;;;;;;5043321;28;20075;-50
2021/01/11 06:59:36;;;;;;;0.20;0.20;;;;;;;;;;5031028;28;20080;-49
2021/01/11 07:02:16;;;;;;;0.10;0.10;;;;;;;;;;5028259;28;20025;-48
2021/01/11 07:04:44;;;;;;;0.17;0.17;;;;;;;;;;5027850;28;20042;-50
2021/01/11 07:07:16;;;;;;;0.30;0.30;;;;;;;;;;5028620;28;20390;-49
2021/01/11 07:09:52;;;;;;;4.60;1.95;;;;;;;;;;5028235;28;20049;-51
2021/01/11 07:12:19;;;;;;;0.28;0.28;;;;;;;;;;5029564;28;20121;-50
2021/01/11 07:14:55;;;;;;;1.08;1.00;;;;;;;;;;5030830;28;20057;-49
2021/01/11 07:17:41;;;;;;;0.30;0.30;;;;;;;;;;5030084;28;20065;-48
2021/01/11 07:20:07;;;;;;;;;;;;;;;;;;5030213;28;20483;-49
2021/01/11 07:22:33;;;;;;;;;;;;;;;;;;5030698;28;19905;-48
2021/01/11 07:25:05;;;;;;;0.22;0.22;;;;;;;;;;5030163;28;19920;-49
2021/01/11 07:27:32;;;;;;;0.30;0.30;;;;;;;;;;5014796;28;20477;-49
2021/01/11 07:29:58;;;;;;;0.10;0.10;;;;;;;;;;5033766;28;20033;-48
2021/01/11 07:32:25;;;;;;;1.75;1.25;;;;;;;;;;5029928;28;20120;-55
2021/01/11 07:34:58;;;;;;;0.55;0.55;;;;;;;;;;5020166;28;20618;-51
2021/01/11 07:37:24;;;;;;;0.20;0.20;;;;;;;;;;5024175;28;20065;-48
2021/01/11 07:39:50;;;;;;;2.08;1.13;;;;;;;;;;5026933;28;20025;-49
2021/01/11 07:42:20;;;;;;;1.23;0.90;;;;;;;;;;5028637;28;20029;-49
2021/01/11 07:44:46;;;;;;;0.63;0.63;;;;;;;;;;5017842;28;20022;-49
2021/01/11 07:47:15;;;;;;;0.50;0.50;;;;;;;;;;5025123;28;20044;-49
2021/01/11 07:49:43;;;;;;;0.10;0.10;;;;;;;;;;5026048;28;20046;-49
2021/01/11 07:52:14;;;;;;;0.57;0.57;;;;;;;;;;5024999;28;20022;-49
2021/01/11 07:54:40;;;;;;;0.25;0.25;;;;;;;;;;5029132;28;20109;-49
2021/01/11 07:57:10;;;;;;;0.40;0.40;;;;;;;;;;5034282;28;20072;-52
2021/01/11 07:59:36;;;;;;;0.63;0.63;;;;;;;;;;5027589;28;20120;-49
2021/01/11 08:02:04;;;;;;;1.38;1.38;;;;;;;;;;5020248;28;20125;-53
2021/01/11 08:04:37;;;;;;;0.63;0.60;;;;;;;;;;5018779;28;20025;-49
2021/01/11 08:07:07;;;;;;;0.13;0.13;;;;;;;;;;5028639;28;20394;-50
2021/01/11 08:09:34;;;;;;;0.25;0.25;;;;;;;;;;5014653;28;20525;-48
2021/01/11 08:12:09;;;;;;;0.28;0.28;;;;;;;;;;5028652;28;20457;-49
2021/01/11 08:14:36;;;;;;;;;;;;;;;;;;5027866;28;20056;-49
2021/01/11 08:17:04;;;;;;;1.17;0.95;;;;;;;;;;5019946;28;19913;-49
2021/01/11 08:19:31;;;;;;;0.20;0.20;;;;;;;;;;5023494;28;20072;-48
2021/01/11 08:21:58;;;;;;;1.30;0.82;;;;;;;;;;5028174;28;20049;-50
2021/01/11 08:24:24;;;;;;;0.10;0.10;;;;;;;;;;5014666;28;20113;-49
2021/01/11 08:27:03;;;;;;;0.80;0.80;;;;;;;;;;5036477;28;20036;-50
2021/01/11 08:29:34;;;;;;;4.05;0.40;;;;;;;;;;5017482;28;20076;-50
2021/01/11 08:32:01;;;;;;;0.73;0.73;;;;;;;;;;5021888;28;20079;-48
2021/01/11 08:34:27;;;;;;;2.08;0.90;;;;;;;;;;5024647;28;20033;-53
2021/01/11 08:36:53;;;;;;;0.20;0.20;;;;;;;;;;5014613;28;20076;-49
2021/01/11 08:39:19;;;;;;;1.95;0.52;;;;;;;;;;5028403;28;20083;-48
2021/01/11 08:41:50;;;;;;;0.88;0.50;;;;;;;;;;5025177;28;20499;-49
2021/01/11 08:44:33;;;;;;;3.33;1.95;;;;;;;;;;5028543;28;20037;-48
2021/01/11 08:47:07;;;;;;;0.10;0.10;;;;;;;;;;5027987;28;20022;-49
2021/01/11 08:49:33;;;;;;;2.50;1.20;;;;;;;;;;5028122;28;20021;-49
2021/01/11 08:52:13;;;;;;;0.40;0.40;;;;;;;;;;5028846;28;20079;-48
2021/01/11 08:54:40;;;;;;;0.20;0.20;;;;;;;;;;5025831;28;20447;-48
2021/01/11 08:57:13;;;;;;;0.30;0.30;;;;;;;;;;5029026;28;20030;-53
2021/01/11 08:59:47;;;;;;;0.73;0.73;;;;;;;;;;5015568;28;20073;-49
2021/01/11 09:02:29;;;;;;;0.52;0.52;;;;;;;;;;5026290;28;20032;-54
2021/01/11 09:04:56;;;;;;;0.80;0.73;;;;;;;;;;5020090;28;20030;-48
2021/01/11 09:07:26;;;;;;;1.08;0.55;;;;;;;;;;5016377;28;20040;-48
2021/01/11 09:09:52;;;;;;;0.15;0.15;;;;;;;;;;5013686;28;20487;-49
2021/01/11 09:12:27;;;;;;;0.10;0.10;;;;;;;;;;5027791;28;20079;-48
2021/01/11 09:14:54;;;;;;;1.20;1.13;;;;;;;;;;5030542;28;20498;-49
2021/01/11 09:17:46;;;;;;;1.15;0.52;;;;;;;;;;5024607;28;20091;-48
2021/01/11 09:20:12;;;;;;;0.50;0.50;;;;;;;;;;5027116;28;20030;-49
2021/01/11 09:22:42;;;;;;;2.55;1.13;;;;;;;;;;5022390;28;20034;-49
2021/01/11 09:25:10;;;;;;;0.10;0.10;;;;;;;;;;5014102;28;20101;-48
2021/01/11 09:27:38;;;;;;;0.20;0.20;;;;;;;;;;5027387;28;20017;-50
2021/01/11 09:30:05;;;;;;;0.63;0.60;;;;;;;;;;5030072;28;20107;-48
2021/01/11 09:32:32;;;;;;;0.50;0.50;;;;;;;;;;5025541;28;20064;-49
2021/01/11 09:34:58;;;;;;;8.70;1.63;;;;;;;;;;5019412;28;20034;-49
2021/01/11 09:37:24;;;;;;;1.23;0.68;;;;;;;;;;5016509;28;20508;-48
2021/01/11 09:39:50;;;;;;;1.02;0.93;;;;;;;;;;5027205;28;20061;-48
2021/01/11 09:42:16;;;;;;;0.40;0.30;;;;;;;;;;5012638;28;20030;-52
2021/01/11 09:44:43;;;;;;;0.30;0.30;;;;;;;;;;5026514;28;20037;-49
2021/01/11 09:47:09;;;;;;;0.88;0.43;;;;;;;;;;5024332;28;20105;-48
2021/01/11 09:49:36;;;;;;;0.73;0.52;;;;;;;;;;5022823;28;20026;-49
2021/01/11 09:52:02;;;;;;;2.15;1.05;;;;;;;;;;5035951;28;20026;-51
2021/01/11 09:54:28;;;;;;;0.80;0.80;;;;;;;;;;5011383;28;20492;-48
2021/01/11 09:56:57;;;;;;;1.85;1.13;;;;;;;;;;5015603;28;20060;-51
2021/01/11 09:59:23;;;;;;;0.35;0.30;;;;;;;;;;5023513;28;20383;-48
2021/01/11 10:01:49;;;;;;;1.17;0.90;;;;;;;;;;5022900;28;20049;-50
2021/01/11 10:04:17;;;;;;;0.30;0.20;;;;;;;;;;5024922;28;20029;-48
2021/01/11 10:06:44;;;;;;;0.75;0.40;;;;;;;;;;5013158;28;20033;-48
2021/01/11 10:09:11;;;;;;;0.93;0.85;;;;;;;;;;5027190;28;20038;-48
2021/01/11 10:11:37;;;;;;;0.40;0.40;;;;;;;;;;5015431;28;20531;-49
2021/01/11 10:14:04;;;;;;;0.50;0.35;;;;;;;;;;5020643;28;20032;-49
2021/01/11 10:16:30;;;;;;;0.60;0.60;;;;;;;;;;5023124;28;20030;-49
2021/01/11 10:18:56;;;;;;;0.10;0.10;;;;;;;;;;5012849;28;20498;-48
2021/01/11 10:21:22;;;;;;;0.65;0.45;;;;;;;;;;5027380;28;20038;-51
2021/01/11 10:23:48;;;;;;;1.30;1.20;;;;;;;;;;5015310;28;20030;-49
2021/01/11 10:26:15;;;;;;;1.00;0.60;;;;;;;;;;5015524;28;20138;-48
2021/01/11 10:28:42;;;;;;;0.35;0.35;;;;;;;;;;5017990;28;20474;-48
2021/01/11 10:31:09;;;;;;;2.17;0.30;;;;;;;;;;5026644;28;20076;-50
2021/01/11 10:33:35;;;;;;;0.45;0.45;;;;;;;;;;5032895;28;20455;-48
2021/01/11 10:36:01;;;;;;;0.30;0.30;;;;;;;;;;5036259;28;20433;-49
2021/01/11 10:38:27;;;;;;;0.57;0.57;;;;;;;;;;5032139;28;20030;-50
2021/01/11 10:40:53;;;;;;;0.75;0.75;;;;;;;;;;5023541;28;20133;-49
2021/01/11 10:43:20;;;;;;;0.30;0.30;;;;;;;;;;5018432;28;20026;-48
2021/01/11 10:45:46;;;;;;;1.98;1.27;;;;;;;;;;5030471;28;20018;-50
2021/01/11 10:48:12;;;;;;;0.38;0.38;;;;;;;;;;5016726;28;20037;-49
2021/01/11 10:50:38;;;;;;;0.43;0.43;;;;;;;;;;5018646;28;20034;-52
2021/01/11 10:53:04;;;;;;;3.47;0.93;;;;;;;;;;5037207;28;20026;-48
2021/01/11 10:55:30;;;;;;;0.70;0.50;;;;;;;;;;5031438;28;20030;-48
2021/01/11 10:57:56;;;;;;;0.20;0.20;;;;;;;;;;5039319;28;20100;-50
2021/01/11 11:00:23;;;;;;;0.73;0.47;;;;;;;;;;5037382;28;20057;-52
2021/01/11 11:02:49;;;;;;;0.40;0.40;;;;;;;;;;5034357;28;20037;-51
2021/01/11 11:05:15;;;;;;;0.10;0.10;;;;;;;;;;5027295;28;20017;-51
2021/01/11 11:07:41;;;;;;;0.32;0.32;;;;;;;;;;5026102;28;20036;-50
2021/01/11 11:10:08;;;;;;;0.70;0.60;;;;;;;;;;5016303;28;20054;-49
2021/01/11 11:12:35;;;;;;;0.20;0.20;;;;;;;;;;5030587;28;20053;-48
2021/01/11 11:15:01;;;;;;;1.65;0.52;;;;;;;;;;5029555;28;20072;-48
2021/01/11 11:17:31;;;;;;;0.57;0.57;;;;;;;;;;5019147;28;20037;-49
2021/01/11 11:19:58;;;;;;;1.38;0.52;;;;;;;;;;5023122;28;20124;-51
2021/01/11 11:22:24;;;;;;;0.52;0.40;;;;;;;;;;5026885;28;20057;-49
2021/01/11 11:24:50;;;;;;;0.22;0.22;;;;;;;;;;5017100;28;20080;-53
2021/01/11 11:27:17;;;;;;;0.28;0.28;;;;;;;;;;5039088;28;20026;-49
2021/01/11 11:29:44;;;;;;;0.40;0.40;;;;;;;;;;5013697;28;20494;-49
2021/01/11 11:32:10;;;;;;;2.10;0.50;;;;;;;;;;5024526;28;20032;-49
2021/01/11 11:34:36;;;;;;;0.10;0.10;;;;;;;;;;5024682;28;20022;-49
2021/01/11 11:37:02;;;;;;;0.22;0.22;;;;;;;;;;5014519;28;20025;-53
2021/01/11 11:39:29;;;;;;;1.30;0.30;;;;;;;;;;5031989;28;20118;-49
2021/01/11 11:42:01;;;;;;;0.57;0.35;;;;;;;;;;5017812;28;20061;-49
2021/01/11 11:44:28;;;;;;;1.33;0.40;;;;;;;;;;5040398;28;20027;-49
2021/01/11 11:46:54;;;;;;;0.20;0.20;;;;;;;;;;5022004;28;20100;-49
2021/01/11 11:49:21;;;;;;;0.22;0.22;;;;;;;;;;5017447;28;20018;-48
2021/01/11 11:51:47;;;;;;;0.28;0.28;;;;;;;;;;5028191;28;20052;-50
2021/01/11 11:54:14;;;;;;;0.20;0.20;;;;;;;;;;5028957;28;20022;-52
2021/01/11 11:56:40;;;;;;;0.30;0.30;;;;;;;;;;5021548;28;20040;-48
2021/01/11 11:59:07;;;;;;;2.45;1.65;;;;;;;;;;5023697;28;20024;-50
2021/01/11 12:01:36;;;;;;;0.30;0.30;;;;;;;;;;5024214;28;20462;-52
2021/01/11 12:04:02;;;;;;;0.20;0.20;;;;;;;;;;5014915;28;20060;-49
2021/01/11 12:06:36;;;;;;;0.13;0.13;;;;;;;;;;5014995;28;20026;-49
2021/01/11 12:09:02;;;;;;;4.15;1.30;;;;;;;;;;5040323;28;20523;-49
2021/01/11 12:11:28;;;;;;;3.03;1.65;;;;;;;;;;5029118;28;20038;-50
2021/01/11 12:13:54;;;;;;;1.35;0.73;;;;;;;;;;5024215;28;20064;-49
2021/01/11 12:16:20;;;;;;;2.05;0.50;;;;;;;;;;5026155;28;20029;-48
2021/01/11 12:18:46;;;;;;;0.43;0.40;;;;;;;;;;5016550;28;20033;-50
2021/01/11 12:21:12;;;;;;;1.48;1.15;;;;;;;;;;5014818;28;20026;-52
2021/01/11 12:23:38;;;;;;;0.10;0.10;;;;;;;;;;5016580;28;20109;-49
2021/01/11 12:26:04;;;;;;;0.10;0.10;;;;;;;;;;5022706;28;20108;-49
2021/01/11 12:28:31;;;;;;;0.25;0.25;;;;;;;;;;5025041;28;20112;-49
2021/01/11 12:30:57;;;;;;;1.45;0.77;;;;;;;;;;5025703;28;20038;-49
2021/01/11 12:33:23;;;;;;;0.68;0.50;;;;;;;;;;5027925;28;20045;-50
2021/01/11 12:35:49;;;;;;;0.10;0.10;;;;;;;;;;5015865;28;20379;-48
2021/01/11 12:38:15;;;;;;;1.58;1.23;;;;;;;;;;5022636;28;20160;-48
2021/01/11 12:40:41;;;;;;;0.30;0.30;;;;;;;;;;5026156;28;20037;-48
2021/01/11 12:43:07;;;;;;;0.73;0.60;;;;;;;;;;5027241;28;20029;-49
2021/01/11 12:45:33;;;;;;;1.08;0.63;;;;;;;;;;5020390;28;20022;-49
2021/01/11 12:47:59;;;;;;;0.73;0.47;;;;;;;;;;5031790;28;20025;-54
2021/01/11 12:50:25;;;;;;;0.30;0.30;;;;;;;;;;5025603;28;20045;-49
2021/01/11 12:52:52;;;;;;;0.20;0.20;;;;;;;;;;5034925;28;20068;-49
2021/01/11 12:55:18;;;;;;;0.47;0.40;;;;;;;;;;5039934;28;20380;-48
2021/01/11 12:57:44;;;;;;;0.20;0.20;;;;;;;;;;5038131;28;20100;-54
2021/01/11 13:00:10;;;;;;;0.10;0.10;;;;;;;;;;5038380;28;20456;-49
2021/01/11 13:02:37;;;;;;;0.10;0.10;;;;;;;;;;5041061;28;20029;-50
2021/01/11 13:05:03;;;;;;;0.22;0.20;;;;;;;;;;5040424;28;20035;-53
2021/01/11 13:07:31;;;;;;;0.10;0.10;;;;;;;;;;5036164;28;20440;-48
2021/01/11 13:09:57;;;;;;;0.10;0.10;;;;;;;;;;5033213;28;20517;-49
2021/01/11 13:12:23;;;;;;;0.25;0.25;;;;;;;;;;5035467;28;20038;-50
2021/01/11 13:14:49;;;;;;;0.15;0.15;;;;;;;;;;5037440;28;20020;-49
2021/01/11 13:17:15;;;;;;;0.30;0.30;;;;;;;;;;5033994;28;20055;-49
2021/01/11 13:19:41;;;;;;;0.20;0.10;;;;;;;;;;5033521;28;20494;-49
2021/01/11 13:22:08;;;;;;;2.75;0.47;;;;;;;;;;5030853;28;20025;-60
2021/01/11 13:24:34;;;;;;;0.17;0.17;;;;;;;;;;5036412;28;20406;-60
2021/01/11 13:27:00;;;;;;;0.20;0.20;;;;;;;;;;5032158;28;20033;-60
2021/01/11 13:29:27;;;;;;;3.00;0.38;;;;;;;;;;5038164;28;20061;-59
2021/01/11 13:31:53;;;;;;;0.35;0.35;;;;;;;;;;5031605;28;20045;-59
2021/01/11 13:34:19;;;;;;;0.35;0.28;;;;;;;;;;5032927;28;20022;-60
2021/01/11 13:36:47;;;;;;;0.80;0.40;;;;;;;;;;5027412;28;20029;-59
2021/01/11 13:39:13;;;;;;;0.10;0.10;;;;;;;;;;5034529;28;20474;-59
2021/01/11 13:41:43;;;;;;;1.45;1.20;;;;;;;;;;5037117;28;20031;-60
2021/01/11 13:44:10;;;;;;;1.13;0.82;;;;;;;;;;5034384;28;20443;-59
2021/01/11 13:46:40;;;;;;;0.17;0.17;;;;;;;;;;5037296;28;20162;-60
2021/01/11 13:49:06;;;;;;;1.20;0.13;;;;;;;;;;5036975;28;20022;-59
2021/01/11 13:51:33;;;;;;;1.45;1.08;;;;;;;;;;5038462;28;20061;-60
2021/01/11 13:53:59;;;;;;;4.05;0.30;;;;;;;;;;5037540;28;20017;-59
2021/01/11 13:56:26;;;;;;;0.10;0.10;;;;;;;;;;5030055;28;20041;-59
2021/01/11 13:58:56;;;;;;;0.10;0.10;;;;;;;;;;5030695;28;20034;-60
2021/01/11 14:01:23;;;;;;;0.55;0.20;;;;;;;;;;5032003;28;20046;-60
2021/01/11 14:03:49;;;;;;;0.20;0.20;;;;;;;;;;5034381;28;20495;-60
2021/01/11 14:06:25;;;;;;;0.10;0.10;;;;;;;;;;5032612;28;20116;-60
2021/01/11 14:08:52;;;;;;;0.10;0.10;;;;;;;;;;5033279;28;20130;-60
2021/01/11 14:11:21;;;;;;;0.20;0.20;;;;;;;;;;5032700;28;20052;-60
2021/01/11 14:13:48;;;;;;;1.20;1.20;;;;;;;;;;5036742;28;20111;-60
2021/01/11 14:16:14;;;;;;;0.10;0.10;;;;;;;;;;5039679;28;20045;-60
2021/01/11 14:18:40;;;;;;;5.47;0.55;;;;;;;;;;5029976;28;20022;-59
2021/01/11 14:21:10;;;;;;;0.10;0.10;;;;;;;;;;5031902;28;20030;-60
2021/01/11 14:23:36;;;;;;;0.10;0.10;;;;;;;;;;5035368;28;20067;-61
2021/01/11 14:26:02;;;;;;;0.13;0.13;;;;;;;;;;5032213;28;20125;-59
2021/01/11 14:28:29;;;;;;;0.10;0.10;;;;;;;;;;5032835;28;20049;-59
2021/01/11 14:30:55;;;;;;;1.88;0.30;;;;;;;;;;5034165;28;20406;-60
2021/01/11 14:33:21;;;;;;;0.15;0.15;;;;;;;;;;5033303;28;20037;-60
2021/01/11 14:35:47;;;;;;;0.20;0.20;;;;;;;;;;5034004;28;20022;-59
2021/01/11 14:38:13;;;;;;;0.35;0.35;;;;;;;;;;5027945;28;20108;-57
2021/01/11 14:40:39;;;;;;;0.65;0.30;;;;;;;;;;5033876;28;20068;-55
2021/01/11 14:43:05;;;;;;;0.10;0.10;;;;;;;;;;5033873;28;20067;-56
2021/01/11 14:45:31;;;;;;;0.10;0.10;;;;;;;;;;5033411;28;20076;-54
2021/01/11 14:47:59;;;;;;;0.10;0.10;;;;;;;;;;5036698;28;20029;-55
2021/01/11 14:50:25;;;;;;;0.20;0.20;;;;;;;;;;5030114;28;20045;-56
2021/01/11 14:52:55;;;;;;;0.32;0.32;;;;;;;;;;5032069;28;20026;-52
2021/01/11 14:55:21;;;;;;;0.32;0.32;;;;;;;;;;5030513;28;20041;-54
2021/01/11 14:57:47;;;;;;;0.20;0.20;;;;;;;;;;5031793;28;20026;-55
2021/01/11 15:00:15;;;;;;;0.10;0.10;;;;;;;;;;5030885;28;20045;-55
2021/01/11 15:02:42;;;;;;;0.20;0.20;;;;;;;;;;5034281;28;20034;-55
2021/01/11 15:05:08;;;;;;;0.20;0.20;;;;;;;;;;5031799;28;20029;-54
2021/01/11 15:07:34;;;;;;;0.57;0.57;;;;;;;;;;5028341;28;20132;-52
2021/01/11 15:10:00;;;;;;;0.45;0.20;;;;;;;;;;5028249;28;20033;-53
2021/01/11 15:12:27;;;;;;;0.65;0.35;;;;;;;;;;5028211;28;20229;-54
2021/01/11 15:14:53;;;;;;;0.20;0.20;;;;;;;;;;5032013;28;20028;-53
2021/01/11 15:17:19;;;;;;;0.10;0.10;;;;;;;;;;5027435;28;20047;-53
2021/01/11 15:19:45;;;;;;;0.95;0.40;;;;;;;;;;5032063;28;20032;-52
2021/01/11 15:22:11;;;;;;;0.30;0.30;;;;;;;;;;5033585;28;20030;-53
2021/01/11 15:24:37;;;;;;;1.00;0.40;;;;;;;;;;5036958;28;20406;-55
2021/01/11 15:27:03;;;;;;;0.20;0.20;;;;;;;;;;5032753;28;20050;-56
2021/01/11 15:29:30;;;;;;;0.13;0.13;;;;;;;;;;5033815;28;20045;-54
2021/01/11 15:31:56;;;;;;;0.30;0.30;;;;;;;;;;5032792;28;20087;-54
2021/01/11 15:34:22;;;;;;;0.22;0.22;;;;;;;;;;5034506;28;20034;-54
2021/01/11 15:36:48;;;;;;;0.20;0.20;;;;;;;;;;5030767;28;20022;-56
2021/01/11 15:39:14;;;;;;;0.10;0.10;;;;;;;;;;5030904;28;20037;-55
2021/01/11 15:41:40;;;;;;;0.20;0.20;;;;;;;;;;5030599;28;20060;-55
2021/01/11 15:44:06;;;;;;;0.20;0.20;;;;;;;;;;5032125;28;20051;-53
2021/01/11 15:46:32;;;;;;;0.20;0.20;;;;;;;;;;5028110;28;20113;-54
2021/01/11 15:48:59;;;;;;;0.10;0.10;;;;;;;;;;5029352;28;20028;-56
2021/01/11 15:51:26;;;;;;;0.20;0.20;;;;;;;;;;5030149;28;20065;-51
2021/01/11 15:53:53;;;;;;;0.10;0.10;;;;;;;;;;5036824;28;20033;-55
2021/01/11 15:56:19;;;;;;;0.10;0.10;;;;;;;;;;5033440;28;20029;-52
2021/01/11 15:58:46;;;;;;;0.10;0.10;;;;;;;;;;5032710;28;20044;-55
2021/01/11 16:01:12;;;;;;;0.45;0.20;;;;;;;;;;5022808;28;20060;-52
2021/01/11 16:03:38;;;;;;;0.30;0.20;;;;;;;;;;5015559;28;20063;-54
2021/01/11 16:06:07;;;;;;;0.55;0.30;;;;;;;;;;5020104;28;20032;-54
2021/01/11 16:08:33;;;;;;;5.85;0.32;;;;;;;;;;5017123;28;20017;-54
2021/01/11 16:11:00;;;;;;;0.10;0.10;;;;;;;;;;5020258;28;20042;-56
2021/01/11 16:13:26;;;;;;;2.50;0.30;;;;;;;;;;5020998;28;20033;-54
2021/01/11 16:15:52;;;;;;;0.13;0.13;;;;;;;;;;5020794;28;20036;-55
2021/01/11 16:18:19;;;;;;;3.40;0.40;;;;;;;;;;5019690;28;20161;-56
2021/01/11 16:20:45;;;;;;;0.45;0.45;;;;;;;;;;5026478;28;20376;-55
2021/01/11 16:23:11;;;;;;;2.08;0.52;;;;;;;;;;5023177;28;20116;-53
2021/01/11 16:25:37;;;;;;;0.20;0.20;;;;;;;;;;5020417;28;20065;-53
2021/01/11 16:28:04;;;;;;;0.70;0.57;;;;;;;;;;5021341;28;20061;-55
2021/01/11 16:30:30;;;;;;;0.57;0.30;;;;;;;;;;5020867;28;20048;-54
2021/01/11 16:32:56;;;;;;;1.48;1.15;;;;;;;;;;5012781;28;20491;-55
2021/01/11 16:35:23;;;;;;;5.45;0.60;;;;;;;;;;5014059;28;20022;-55
2021/01/11 16:37:49;;;;;;;0.10;0.10;;;;;;;;;;5015743;28;20029;-55
2021/01/11 16:40:15;;;;;;;0.65;0.40;;;;;;;;;;5016506;28;20038;-55
2021/01/11 16:42:41;;;;;;;0.47;0.47;;;;;;;;;;5016650;28;20030;-53
2021/01/11 16:45:07;;;;;;;0.60;0.40;;;;;;;;;;5043969;28;20044;-54
2021/01/11 16:47:34;;;;;;;1.27;0.52;;;;;;;;;;5015477;28;20108;-52
2021/01/11 16:50:01;;;;;;;2.88;0.85;;;;;;;;;;5018935;28;20057;-54
2021/01/11 16:52:27;;;;;;;0.10;0.10;;;;;;;;;;5020915;28;20032;-53
2021/01/11 16:54:53;;;;;;;0.82;0.55;;;;;;;;;;5025372;28;20454;-52
2021/01/11 16:57:19;;;;;;;0.70;0.35;;;;;;;;;;5026464;28;20072;-51
2021/01/11 16:59:45;;;;;;;0.10;0.10;;;;;;;;;;5025656;28;20490;-57
2021/01/11 17:02:12;;;;;;;1.23;0.30;;;;;;;;;;5018063;28;20033;-55
2021/01/11 17:04:38;;;;;;;0.30;0.30;;;;;;;;;;5024209;28;20033;-54
2021/01/11 17:07:04;;;;;;;2.85;0.30;;;;;;;;;;5026017;28;20139;-55
2021/01/11 17:09:30;;;;;;;0.25;0.25;;;;;;;;;;5024748;28;20124;-55
2021/01/11 17:11:57;;;;;;;0.35;0.35;;;;;;;;;;5026579;28;20029;-53
2021/01/11 17:14:23;;;;;;;0.10;0.10;;;;;;;;;;5024770;28;20025;-56
2021/01/11 17:16:50;;;;;;;0.10;0.10;;;;;;;;;;5022235;28;20410;-57
2021/01/11 17:19:16;;;;;;;1.92;0.93;;;;;;;;;;5021560;28;20021;-52
2021/01/11 17:21:42;;;;;;;0.20;0.20;;;;;;;;;;5028640;28;20024;-53
2021/01/11 17:24:09;;;;;;;0.32;0.32;;;;;;;;;;5025411;28;20037;-54
2021/01/11 17:26:35;;;;;;;1.30;0.70;;;;;;;;;;5036384;28;20023;-54
2021/01/11 17:29:02;;;;;;;4.97;1.25;;;;;;;;;;5028533;28;20056;-56
2021/01/11 17:31:29;;;;;;;0.10;0.10;;;;;;;;;;5034592;28;20057;-55
2021/01/11 17:33:56;;;;;;;0.17;0.17;;;;;;;;;;5028710;28;20075;-52
2021/01/11 17:36:23;;;;;;;0.73;0.57;;;;;;;;;;5026785;28;20025;-54
2021/01/11 17:38:50;;;;;;;0.25;0.10;;;;;;;;;;5028304;28;20092;-53
2021/01/11 17:41:17;;;;;;;0.30;0.25;;;;;;;;;;5026073;28;20051;-55
2021/01/11 17:43:44;;;;;;;0.60;0.40;;;;;;;;;;5027286;28;20025;-54
2021/01/11 17:46:11;;;;;;;0.30;0.30;;;;;;;;;;5030533;28;20530;-55
2021/01/11 17:48:37;;;;;;;0.45;0.45;;;;;;;;;;5022900;28;20025;-53
2021/01/11 17:51:04;;;;;;;0.30;0.30;;;;;;;;;;5025644;28;20049;-55
2021/01/11 17:53:30;;;;;;;0.20;0.20;;;;;;;;;;5021680;28;20030;-58
2021/01/11 17:55:56;;;;;;;0.30;0.30;;;;;;;;;;5023311;28;20025;-55
2021/01/11 17:58:23;;;;;;;0.10;0.10;;;;;;;;;;5021903;28;20026;-57
2021/01/11 18:00:51;;;;;;;6.00;1.50;;;;;;;;;;5016943;28;20049;-57
2021/01/11 18:03:18;;;;;;;1.38;1.27;;;;;;;;;;5019318;28;21136;-57
2021/01/11 18:05:45;;;;;;;1.50;1.02;;;;;;;;;;5013784;28;20046;-55
2021/01/11 18:08:12;;;;;;;0.57;0.45;;;;;;;;;;5052352;28;20037;-53
2021/01/11 18:10:38;;;;;;;0.10;0.10;;;;;;;;;;5021209;28;20041;-55
2021/01/11 18:13:04;;;;;;;0.20;0.20;;;;;;;;;;5013590;28;20376;-54
2021/01/11 18:15:30;;;;;;;0.52;0.30;;;;;;;;;;5018700;28;20165;-53
2021/01/11 18:17:56;;;;;;;6.25;0.65;;;;;;;;;;5011573;28;20052;-55
2021/01/11 18:20:22;;;;;;;0.10;0.10;;;;;;;;;;5057040;28;20480;-54
2021/01/11 18:22:48;;;;;;;1.88;1.27;;;;;;;;;;5024996;28;20021;-55
2021/01/11 18:25:14;;;;;;;1.63;0.80;;;;;;;;;;5025865;28;20090;-54
2021/01/11 18:27:41;;;;;;;1.85;0.73;;;;;;;;;;5022670;28;20022;-55
2021/01/11 18:30:07;;;;;;;0.20;0.20;;;;;;;;;;5020367;28;20509;-55
2021/01/11 18:32:36;;;;;;;0.40;0.40;;;;;;;;;;5025506;28;20112;-55
2021/01/11 18:35:02;;;;;;;0.30;0.30;;;;;;;;;;5018269;28;20030;-55
2021/01/11 18:37:31;;;;;;;0.10;0.10;;;;;;;;;;5020051;28;20021;-56
2021/01/11 18:39:57;;;;;;;0.20;0.20;;;;;;;;;;5020525;28;20037;-58
2021/01/11 18:42:23;;;;;;;2.92;1.15;;;;;;;;;;5015903;28;20055;-55
2021/01/11 18:44:50;;;;;;;0.98;0.73;;;;;;;;;;5021914;28;20497;-54
2021/01/11 18:47:16;;;;;;;0.10;0.10;;;;;;;;;;5015809;28;20041;-57
2021/01/11 18:49:43;;;;;;;1.45;0.85;;;;;;;;;;5026256;28;20033;-56
2021/01/11 18:52:09;;;;;;;0.10;0.10;;;;;;;;;;5022995;28;20071;-54
2021/01/11 18:54:35;;;;;;;9.00;1.15;;;;;;;;;;5021330;28;20032;-55
2021/01/11 18:57:06;;;;;;;5.70;0.68;;;;;;;;;;5022651;28;20026;-53
2021/01/11 18:59:32;;;;;;;0.30;0.30;;;;;;;;;;5026891;28;20048;-55
2021/01/11 19:01:59;;;;;;;0.85;0.47;;;;;;;;;;5029284;28;20593;-53
2021/01/11 19:04:25;;;;;;;0.13;0.13;;;;;;;;;;5030067;28;20988;-58
2021/01/11 19:06:52;;;;;;;1.75;0.65;;;;;;;;;;5031174;28;20128;-56
2021/01/11 19:09:18;;;;;;;20.88;10.57;;;;;;;;;;5030201;28;20105;-56
2021/01/11 19:11:47;;;;;;;1.02;1.02;;;;;;;;;;5017486;28;20053;-56
2021/01/11 19:14:14;;;;;;;0.20;0.20;;;;;;;;;;5029911;28;20029;-55
2021/01/11 19:16:40;;;;;;;0.73;0.35;;;;;;;;;;5028978;28;20433;-55
2021/01/11 19:19:06;;;;;;;0.60;0.60;;;;;;;;;;5034122;28;20029;-54
2021/01/11 19:21:32;;;;;;;2.10;0.50;;;;;;;;;;5030513;28;20060;-56
2021/01/11 19:23:58;;;;;;;2.72;0.88;;;;;;;;;;5034234;28;20112;-54
2021/01/11 19:26:28;;;;;;;0.60;0.40;;;;;;;;;;5025983;28;20037;-54
2021/01/11 19:28:55;;;;;;;1.55;0.73;;;;;;;;;;5029085;28;20036;-52
2021/01/11 19:31:22;;;;;;;3.20;1.17;;;;;;;;;;5034540;28;20185;-52
2021/01/11 19:33:49;;;;;;;1.65;0.82;;;;;;;;;;5031148;28;20025;-54
2021/01/11 19:36:15;;;;;;;0.13;0.13;;;;;;;;;;5029962;28;20045;-54
2021/01/11 19:38:41;;;;;;;0.55;0.45;;;;;;;;;;5031058;28;20048;-53
2021/01/11 19:41:08;;;;;;;1.20;0.95;;;;;;;;;;5060037;28;20060;-55
2021/01/11 19:43:35;;;;;;;0.32;0.30;;;;;;;;;;5031182;28;20033;-55
2021/01/11 19:46:01;;;;;;;1.85;0.98;;;;;;;;;;5025103;28;20029;-52
2021/01/11 19:48:27;;;;;;;0.57;0.57;;;;;;;;;;5027680;28;20057;-51
2021/01/11 19:50:53;;;;;;;0.43;0.43;;;;;;;;;;5023017;28;20064;-55
2021/01/11 19:53:19;;;;;;;1.60;1.08;;;;;;;;;;5021117;28;20494;-56
2021/01/11 19:55:45;;;;;;;0.68;0.68;;;;;;;;;;5023516;28;20025;-56
2021/01/11 19:58:11;;;;;;;1.80;0.93;;;;;;;;;;5025323;28;20033;-58
2021/01/11 20:00:38;;;;;;;0.10;0.10;;;;;;;;;;5027970;28;20115;-51
2021/01/11 20:03:04;;;;;;;2.05;0.82;;;;;;;;;;5030756;28;20450;-55
2021/01/11 20:05:30;;;;;;;0.30;0.30;;;;;;;;;;5016884;28;20108;-56
2021/01/11 20:07:56;;;;;;;0.63;0.63;;;;;;;;;;5023656;28;20111;-55
2021/01/11 20:10:24;;;;;;;0.30;0.30;;;;;;;;;;5023867;28;20045;-54
2021/01/11 20:12:51;;;;;;;0.10;0.10;;;;;;;;;;5025713;28;20586;-52
2021/01/11 20:15:17;;;;;;;0.82;0.82;;;;;;;;;;5019905;28;20060;-58
2021/01/11 20:17:45;;;;;;;0.93;0.47;;;;;;;;;;5016099;28;20040;-56
2021/01/11 20:20:12;;;;;;;4.20;1.08;;;;;;;;;;5022000;28;20030;-54
2021/01/11 20:22:39;;;;;;;0.10;0.10;;;;;;;;;;5025072;28;20104;-56
2021/01/11 20:25:05;;;;;;;2.40;1.25;;;;;;;;;;5025797;28;20038;-58
2021/01/11 20:27:32;;;;;;;1.65;0.50;;;;;;;;;;5025836;28;20034;-53
2021/01/11 20:29:58;;;;;;;0.52;0.50;;;;;;;;;;5020578;28;20124;-56
2021/01/11 20:32:27;;;;;;;0.82;0.73;;;;;;;;;;5020943;28;20125;-52
2021/01/11 20:34:53;;;;;;;0.50;0.50;;;;;;;;;;5014725;28;20048;-56
2021/01/11 20:37:19;;;;;;;1.08;0.60;;;;;;;;;;5019008;28;20077;-54
2021/01/11 20:39:45;;;;;;;1.00;0.75;;;;;;;;;;5023639;28;20120;-55
2021/01/11 20:42:12;;;;;;;10.95;1.45;;;;;;;;;;5018855;28;20056;-56
2021/01/11 20:44:38;;;;;;;6.80;3.22;;;;;;;;;;5026991;28;20673;-55